createdAt,value
2022-10-06T00:01:14.036Z,99.90
2022-10-06T00:03:42.510Z,99.90
2022-10-06T00:06:12.622Z,99.90
2022-10-06T00:08:42.336Z,99.90
2022-10-06T00:11:12.202Z,99.90
2022-10-06T00:13:40.793Z,99.90
2022-10-06T00:16:15.095Z,99.90
2022-10-06T00:18:43.934Z,99.90
2022-10-06T00:21:11.571Z,99.90
2022-10-06T00:23:39.204Z,99.90
2022-10-06T00:26:13.446Z,99.90
2022-10-06T00:28:41.158Z,99.90
2022-10-06T00:31:08.849Z,99.90
2022-10-06T00:33:37.348Z,99.90
2022-10-06T00:36:05.086Z,99.90
2022-10-06T00:38:32.907Z,99.90
2022-10-06T00:41:00.989Z,99.90
2022-10-06T00:43:40.775Z,99.90
2022-10-06T00:46:40.284Z,99.90
2022-10-06T00:49:17.707Z,99.90
2022-10-06T00:51:51.987Z,99.90
2022-10-06T00:54:20.854Z,99.90
2022-10-06T00:56:48.900Z,99.90
2022-10-06T00:59:18.850Z,99.90
2022-10-06T01:02:00.094Z,99.90
2022-10-06T01:04:32.478Z,99.90
2022-10-06T01:07:01.042Z,99.90
2022-10-06T01:09:29.927Z,99.90
2022-10-06T01:12:00.631Z,99.90
2022-10-06T01:14:29.076Z,99.90
2022-10-06T01:17:25.379Z,99.90
2022-10-06T01:20:00.102Z,99.90
2022-10-06T01:22:29.537Z,99.90
2022-10-06T01:25:00.527Z,99.90
2022-10-06T01:27:31.429Z,99.90
2022-10-06T01:29:59.683Z,99.90
2022-10-06T01:32:39.960Z,99.90
2022-10-06T01:35:10.394Z,99.90
2022-10-06T01:37:37.951Z,99.90
2022-10-06T01:40:06.123Z,99.90
2022-10-06T01:42:35.720Z,99.90
2022-10-06T01:45:04.167Z,99.90
2022-10-06T01:47:32.630Z,99.90
2022-10-06T01:50:00.560Z,99.90
2022-10-06T01:52:28.192Z,99.90
2022-10-06T01:54:55.815Z,99.90
2022-10-06T01:57:23.428Z,99.90
2022-10-06T01:59:54.841Z,99.90
2022-10-06T02:02:23.077Z,99.90
2022-10-06T02:04:50.632Z,99.90
2022-10-06T02:07:18.786Z,99.90
2022-10-06T02:09:46.351Z,99.90
2022-10-06T02:12:13.976Z,99.90
2022-10-06T02:14:42.107Z,99.90
2022-10-06T02:17:09.968Z,99.90
2022-10-06T02:19:37.540Z,99.70
2022-10-06T02:22:05.259Z,99.90
2022-10-06T02:24:32.947Z,95.10
2022-10-06T02:27:00.608Z,98.10
2022-10-06T02:29:28.171Z,98.40
2022-10-06T02:31:55.822Z,99.90
2022-10-06T02:34:23.477Z,99.90
2022-10-06T02:36:51.069Z,99.90
2022-10-06T02:39:18.641Z,99.90
2022-10-06T02:41:46.610Z,99.90
2022-10-06T02:44:14.211Z,99.90
2022-10-06T02:46:41.844Z,99.90
2022-10-06T02:49:09.464Z,99.90
2022-10-06T02:51:37.037Z,99.90
2022-10-06T02:54:04.706Z,99.90
2022-10-06T02:56:32.282Z,99.90
2022-10-06T02:58:59.935Z,99.90
2022-10-06T03:01:28.450Z,99.90
2022-10-06T03:03:56.686Z,99.90
2022-10-06T03:06:27.668Z,99.90
2022-10-06T03:08:59.346Z,99.90
2022-10-06T03:11:29.406Z,99.90
2022-10-06T03:13:57.461Z,99.90
2022-10-06T03:16:31.911Z,99.90
2022-10-06T03:19:05.732Z,99.90
2022-10-06T03:21:35.910Z,99.90
2022-10-06T03:24:04.269Z,99.90
2022-10-06T03:26:35.150Z,99.90
2022-10-06T03:29:04.437Z,99.90
2022-10-06T03:31:33.940Z,99.90
2022-10-06T03:34:01.573Z,99.90
2022-10-06T03:36:32.816Z,99.90
2022-10-06T03:39:05.423Z,99.90
2022-10-06T03:41:35.851Z,99.90
2022-10-06T03:44:03.718Z,99.90
2022-10-06T03:46:34.040Z,99.90
2022-10-06T03:49:01.941Z,99.90
2022-10-06T03:51:41.302Z,99.90
2022-10-06T03:54:12.455Z,99.90
2022-10-06T03:56:41.808Z,99.90
2022-10-06T03:59:14.361Z,99.90
2022-10-06T04:01:44.601Z,99.90
2022-10-06T04:04:13.243Z,99.90
2022-10-06T04:06:43.314Z,99.90
2022-10-06T04:09:15.238Z,99.90
2022-10-06T04:11:44.771Z,99.90
2022-10-06T04:14:18.276Z,99.90
2022-10-06T04:16:48.018Z,99.90
2022-10-06T04:19:17.186Z,99.90
2022-10-06T04:21:48.146Z,99.90
2022-10-06T04:24:18.978Z,99.90
2022-10-06T04:26:50.795Z,99.90
2022-10-06T04:29:18.543Z,99.90
2022-10-06T04:31:48.215Z,99.90
2022-10-06T04:34:15.797Z,99.90
2022-10-06T04:36:46.309Z,99.90
2022-10-06T04:39:16.557Z,99.90
2022-10-06T04:41:47.265Z,99.90
2022-10-06T04:44:15.111Z,99.90
2022-10-06T04:46:44.536Z,99.90
2022-10-06T04:49:21.020Z,99.90
2022-10-06T04:51:49.686Z,99.90
2022-10-06T04:54:18.873Z,99.90
2022-10-06T04:56:46.781Z,99.90
2022-10-06T04:59:14.422Z,99.90
2022-10-06T05:01:42.027Z,99.90
2022-10-06T05:04:09.627Z,99.90
2022-10-06T05:06:42.057Z,99.90
2022-10-06T05:09:12.341Z,99.90
2022-10-06T05:11:40.026Z,99.90
2022-10-06T05:14:08.062Z,99.90
2022-10-06T05:16:37.959Z,99.90
2022-10-06T05:19:06.062Z,99.90
2022-10-06T05:21:33.913Z,99.90
2022-10-06T05:24:02.854Z,99.90
2022-10-06T05:26:33.223Z,99.90
2022-10-06T05:29:01.098Z,99.90
2022-10-06T05:31:33.728Z,99.90
2022-10-06T05:34:04.674Z,99.90
2022-10-06T05:36:33.897Z,99.90
2022-10-06T05:39:03.895Z,99.90
2022-10-06T05:41:33.662Z,99.90
2022-10-06T05:44:01.504Z,99.90
2022-10-06T05:46:31.615Z,99.90
2022-10-06T05:49:04.813Z,99.90
2022-10-06T05:51:34.349Z,99.90
2022-10-06T05:54:05.734Z,99.90
2022-10-06T05:56:36.252Z,99.90
2022-10-06T05:59:05.069Z,99.90
2022-10-06T06:01:37.198Z,99.90
2022-10-06T06:04:07.349Z,99.90
2022-10-06T06:06:43.674Z,99.90
2022-10-06T06:09:19.289Z,99.90
2022-10-06T06:11:49.541Z,99.90
2022-10-06T06:14:19.149Z,99.90
2022-10-06T06:16:46.839Z,99.90
2022-10-06T06:19:14.647Z,99.90
2022-10-06T06:21:42.281Z,99.90
2022-10-06T06:24:09.860Z,99.90
2022-10-06T06:26:37.789Z,99.90
2022-10-06T06:29:06.396Z,99.90
2022-10-06T06:31:36.646Z,99.90
2022-10-06T06:34:06.853Z,99.90
2022-10-06T06:36:40.958Z,99.90
2022-10-06T06:39:10.765Z,95.90
2022-10-06T06:41:41.063Z,58.20
2022-10-06T06:44:11.189Z,28.30
2022-10-06T06:46:40.162Z,6.70
2022-10-06T06:49:09.777Z,7.00
2022-10-06T06:51:42.568Z,1.50
2022-10-06T06:54:11.623Z,1.00
2022-10-06T06:56:39.430Z,1.00
2022-10-06T06:59:11.633Z,1.00
2022-10-06T07:01:45.299Z,1.00
2022-10-06T07:04:15.723Z,1.00
2022-10-06T07:06:56.901Z,1.00
2022-10-06T07:09:28.354Z,1.00
2022-10-06T07:11:55.939Z,1.00
2022-10-06T07:14:24.285Z,1.00
2022-10-06T07:17:10.497Z,1.00
2022-10-06T07:19:40.693Z,1.00
2022-10-06T07:22:26.849Z,1.00
2022-10-06T07:25:08.519Z,1.00
2022-10-06T07:27:42.324Z,1.00
2022-10-06T07:30:18.946Z,1.00
2022-10-06T07:32:48.060Z,1.00
2022-10-06T07:35:16.757Z,1.00
2022-10-06T07:37:44.382Z,1.00
2022-10-06T07:40:12.120Z,1.00
2022-10-06T07:42:51.901Z,1.00
2022-10-06T07:45:44.887Z,1.00
2022-10-06T07:48:18.021Z,1.00
2022-10-06T07:50:48.073Z,1.00
2022-10-06T07:53:17.209Z,1.00
2022-10-06T07:55:46.608Z,1.00
2022-10-06T07:58:16.801Z,1.00
2022-10-06T08:00:46.360Z,1.00
2022-10-06T08:03:18.047Z,1.00
2022-10-06T08:05:47.624Z,1.00
2022-10-06T08:08:16.196Z,1.00
2022-10-06T08:10:51.561Z,1.00
2022-10-06T08:13:19.265Z,1.00
2022-10-06T08:15:49.991Z,1.00
2022-10-06T08:18:34.135Z,1.00
2022-10-06T08:21:24.241Z,1.00
2022-10-06T08:23:53.534Z,1.00
2022-10-06T08:26:23.409Z,1.00
2022-10-06T08:28:53.431Z,1.00
2022-10-06T08:31:22.702Z,1.00
2022-10-06T08:33:56.093Z,1.00
2022-10-06T08:36:30.990Z,1.00
2022-10-06T08:39:00.686Z,1.00
2022-10-06T08:41:48.611Z,1.00
2022-10-06T08:44:44.341Z,99.90
2022-10-06T08:47:16.703Z,99.90
2022-10-06T08:49:49.639Z,99.90
2022-10-06T08:52:52.022Z,99.90
2022-10-06T08:55:42.217Z,99.90
2022-10-06T08:58:50.323Z,1.00
2022-10-06T09:01:44.989Z,1.00
2022-10-06T09:04:29.835Z,1.00
2022-10-06T09:07:14.197Z,1.00
2022-10-06T09:09:46.510Z,1.00
2022-10-06T09:12:37.241Z,99.90
2022-10-06T09:15:29.233Z,99.90
2022-10-06T09:18:10.716Z,99.90
2022-10-06T09:20:54.047Z,99.90
2022-10-06T09:23:41.624Z,1.00
2022-10-06T09:26:12.808Z,98.60
2022-10-06T09:28:40.507Z,1.00
2022-10-06T09:31:21.083Z,99.90
2022-10-06T09:33:53.058Z,1.00
2022-10-06T09:36:21.332Z,1.00
2022-10-06T09:38:54.334Z,1.00
2022-10-06T09:41:28.526Z,1.00
2022-10-06T09:44:03.296Z,1.00
2022-10-06T09:46:34.351Z,1.00
2022-10-06T09:49:15.817Z,99.90
2022-10-06T09:52:15.190Z,74.40
2022-10-06T09:54:44.507Z,99.90
2022-10-06T09:57:19.938Z,1.00
2022-10-06T09:59:48.990Z,1.00
2022-10-06T10:02:39.484Z,1.00
2022-10-06T10:05:28.816Z,99.90
2022-10-06T10:08:17.451Z,99.90
2022-10-06T10:10:45.308Z,1.00
2022-10-06T10:13:19.178Z,11.50
2022-10-06T10:16:02.602Z,99.90
2022-10-06T10:18:31.540Z,1.00
2022-10-06T10:21:07.516Z,99.90
2022-10-06T10:23:42.600Z,99.90
2022-10-06T10:26:10.321Z,1.00
2022-10-06T10:28:50.860Z,63.40
2022-10-06T10:31:52.346Z,99.90
2022-10-06T10:35:02.961Z,19.40
2022-10-06T10:37:30.464Z,1.00
2022-10-06T10:40:03.194Z,1.00
2022-10-06T10:42:37.969Z,99.90
2022-10-06T10:45:34.052Z,1.00
2022-10-06T10:48:13.185Z,1.00
2022-10-06T10:50:52.118Z,99.90
2022-10-06T10:53:42.495Z,1.00
2022-10-06T10:56:13.292Z,1.00
2022-10-06T10:58:43.059Z,1.00
2022-10-06T11:01:55.685Z,99.90
2022-10-06T11:04:23.413Z,99.90
2022-10-06T11:07:23.383Z,99.90
2022-10-06T11:09:58.993Z,99.90
2022-10-06T11:12:45.484Z,99.90
2022-10-06T11:15:43.105Z,99.90
2022-10-06T11:18:58.435Z,99.90
2022-10-06T11:21:32.806Z,99.90
2022-10-06T11:24:36.072Z,99.90
2022-10-06T11:27:27.839Z,99.90
2022-10-06T11:30:28.703Z,99.90
2022-10-06T11:32:58.625Z,99.90
2022-10-06T11:35:29.026Z,99.90
2022-10-06T11:38:00.784Z,99.90
2022-10-06T11:40:41.995Z,99.90
2022-10-06T11:43:28.411Z,99.90
2022-10-06T11:46:18.785Z,99.90
2022-10-06T11:48:48.919Z,99.90
2022-10-06T11:51:17.066Z,99.90
2022-10-06T11:53:45.378Z,99.90
2022-10-06T11:56:18.857Z,99.90
2022-10-06T11:58:52.348Z,99.90
2022-10-06T12:01:35.210Z,99.90
2022-10-06T12:04:09.079Z,99.90
2022-10-06T12:06:42.566Z,99.90
2022-10-06T12:09:38.060Z,99.90
2022-10-06T12:12:20.915Z,99.90
2022-10-06T12:18:15.279Z,99.90
2022-10-06T12:21:06.333Z,99.90
2022-10-06T12:24:00.309Z,99.90
2022-10-06T12:26:59.016Z,99.90
2022-10-06T12:29:43.792Z,99.90
2022-10-06T12:32:22.487Z,99.90
2022-10-06T12:35:08.626Z,99.90
2022-10-06T12:37:44.798Z,99.90
2022-10-06T12:40:44.095Z,99.90
2022-10-06T12:43:14.476Z,99.90
2022-10-06T12:45:46.317Z,99.90
2022-10-06T12:48:38.684Z,99.90
2022-10-06T12:51:23.498Z,99.90
2022-10-06T12:54:29.076Z,99.90
2022-10-06T12:57:15.519Z,99.90
2022-10-06T12:59:43.272Z,99.90
2022-10-06T13:02:19.345Z,99.90
2022-10-06T13:04:54.539Z,99.90
2022-10-06T13:07:28.798Z,99.90
2022-10-06T13:10:14.405Z,99.90
2022-10-06T13:12:47.352Z,99.90
2022-10-06T13:15:23.708Z,99.90
2022-10-06T13:18:10.725Z,99.90
2022-10-06T13:20:48.327Z,99.90
2022-10-06T13:23:24.923Z,99.90
2022-10-06T13:25:52.602Z,99.90
2022-10-06T13:28:44.931Z,99.90
2022-10-06T13:31:21.600Z,99.90
2022-10-06T13:33:53.801Z,99.90
2022-10-06T13:36:28.600Z,99.90
2022-10-06T13:38:56.707Z,99.90
2022-10-06T13:41:37.151Z,99.90
2022-10-06T13:44:19.070Z,99.90
2022-10-06T13:46:58.844Z,99.90
2022-10-06T13:49:30.527Z,99.90
2022-10-06T13:52:02.992Z,99.90
2022-10-06T13:54:42.996Z,99.90
2022-10-06T13:57:32.492Z,99.90
2022-10-06T14:00:23.710Z,99.90
2022-10-06T14:02:55.098Z,99.90
2022-10-06T14:05:23.862Z,99.90
2022-10-06T14:07:52.301Z,99.90
2022-10-06T14:10:29.978Z,99.90
2022-10-06T14:13:08.816Z,99.90
2022-10-06T14:15:49.636Z,99.90
2022-10-06T14:18:22.229Z,99.90
2022-10-06T14:20:53.287Z,99.90
2022-10-06T14:23:41.391Z,99.90
2022-10-06T14:26:11.701Z,99.90
2022-10-06T14:28:45.861Z,99.90
2022-10-06T14:31:14.775Z,99.90
2022-10-06T14:33:43.219Z,99.90
2022-10-06T14:36:17.791Z,99.90
2022-10-06T14:38:49.452Z,99.90
2022-10-06T14:41:19.391Z,99.90
2022-10-06T14:43:48.153Z,99.90
2022-10-06T14:46:15.938Z,99.90
2022-10-06T14:48:48.083Z,99.90
2022-10-06T14:51:16.879Z,99.90
2022-10-06T14:53:53.209Z,99.90
2022-10-06T14:56:23.104Z,99.90
2022-10-06T14:58:52.408Z,99.90
2022-10-06T15:01:22.972Z,99.90
2022-10-06T15:03:53.888Z,99.90
2022-10-06T15:06:40.981Z,99.90
2022-10-06T15:09:13.011Z,99.90
2022-10-06T15:12:06.257Z,99.90
2022-10-06T15:14:39.323Z,99.90
2022-10-06T15:17:07.230Z,99.90
2022-10-06T15:19:35.007Z,99.90
2022-10-06T15:22:04.615Z,99.90
2022-10-06T15:24:32.407Z,99.90
2022-10-06T15:27:23.905Z,99.90
2022-10-06T15:29:52.418Z,99.90
2022-10-06T15:32:20.041Z,99.90
2022-10-06T15:34:47.600Z,99.90
2022-10-06T15:37:15.694Z,99.90
2022-10-06T15:39:46.406Z,99.90
2022-10-06T15:42:21.634Z,99.90
2022-10-06T15:44:49.910Z,99.90
2022-10-06T15:47:17.723Z,99.90
2022-10-06T15:49:46.861Z,99.90
2022-10-06T15:52:14.519Z,99.90
2022-10-06T15:54:42.267Z,99.90
2022-10-06T15:57:16.460Z,99.90
2022-10-06T15:59:48.778Z,99.90
2022-10-06T16:02:17.795Z,99.90
2022-10-06T16:05:09.121Z,99.90
2022-10-06T16:07:36.680Z,99.90
2022-10-06T16:10:04.585Z,99.90
2022-10-06T16:12:32.727Z,99.90
2022-10-06T16:15:00.307Z,99.90
2022-10-06T16:17:27.907Z,1.00
2022-10-06T16:19:55.460Z,1.00
2022-10-06T16:22:23.112Z,1.00
2022-10-06T16:24:50.781Z,1.00
2022-10-06T16:27:18.672Z,99.90
2022-10-06T16:29:46.274Z,1.00
2022-10-06T16:32:13.966Z,99.90
2022-10-06T16:34:41.551Z,1.00
2022-10-06T16:37:09.295Z,1.00
2022-10-06T16:39:37.000Z,1.00
2022-10-06T16:42:04.817Z,1.00
2022-10-06T16:44:32.378Z,1.00
2022-10-06T16:47:00.087Z,5.70
2022-10-06T16:49:28.221Z,1.00
2022-10-06T16:51:55.880Z,66.40
2022-10-06T16:54:23.656Z,1.00
2022-10-06T16:56:55.261Z,1.00
2022-10-06T16:59:25.948Z,19.00
2022-10-06T17:01:55.923Z,1.00
2022-10-06T17:04:25.376Z,99.90
2022-10-06T17:06:57.422Z,1.00
2022-10-06T17:09:27.351Z,1.00
2022-10-06T17:12:02.587Z,1.00
2022-10-06T17:14:33.162Z,99.90
2022-10-06T17:17:01.452Z,99.90
2022-10-06T17:19:30.108Z,99.90
2022-10-06T17:21:59.848Z,99.90
2022-10-06T17:24:29.488Z,1.00
2022-10-06T17:26:57.909Z,1.00
2022-10-06T17:29:26.569Z,1.00
2022-10-06T17:31:58.571Z,1.00
2022-10-06T17:34:32.477Z,1.00
2022-10-06T17:37:01.735Z,1.00
2022-10-06T17:39:31.845Z,1.00
2022-10-06T17:41:59.565Z,99.90
2022-10-06T17:44:28.693Z,99.90
2022-10-06T17:47:00.517Z,99.90
2022-10-06T17:49:32.633Z,99.90
2022-10-06T17:52:00.607Z,99.90
2022-10-06T17:54:28.475Z,1.00
2022-10-06T17:56:57.794Z,1.00
2022-10-06T17:59:30.941Z,1.00
2022-10-06T18:02:02.549Z,1.00
2022-10-06T18:04:30.594Z,1.00
2022-10-06T18:06:58.221Z,1.00
2022-10-06T18:09:25.981Z,1.00
2022-10-06T18:12:01.971Z,1.00
2022-10-06T18:14:34.621Z,1.00
2022-10-06T18:17:03.790Z,1.00
2022-10-06T18:19:34.170Z,1.00
2022-10-06T18:22:10.294Z,1.00
2022-10-06T18:24:38.644Z,1.00
2022-10-06T18:27:07.913Z,1.00
2022-10-06T18:29:37.642Z,1.00
2022-10-06T18:37:45.553Z,1.00
2022-10-06T18:40:14.674Z,1.00
2022-10-06T18:42:42.264Z,1.00
2022-10-06T18:45:34.215Z,1.00
2022-10-06T18:48:23.481Z,1.00
2022-10-06T18:51:03.330Z,1.00
2022-10-06T18:53:36.242Z,1.00
2022-10-06T18:56:05.135Z,1.00
2022-10-06T18:58:41.583Z,1.00
2022-10-06T19:01:09.345Z,1.00
2022-10-06T19:03:38.354Z,1.00
2022-10-06T19:06:06.149Z,1.00
2022-10-06T19:08:34.156Z,1.00
2022-10-06T19:11:24.944Z,1.00
2022-10-06T19:13:53.641Z,1.00
2022-10-06T19:16:21.390Z,1.00
2022-10-06T19:18:49.322Z,1.00
2022-10-06T19:21:17.020Z,1.00
2022-10-06T19:23:44.695Z,1.00
2022-10-06T19:26:12.578Z,1.00
2022-10-06T19:28:40.413Z,1.00
2022-10-06T19:31:12.484Z,1.00
2022-10-06T19:33:40.516Z,1.00
2022-10-06T19:36:08.991Z,1.00
2022-10-06T19:38:38.856Z,1.00
2022-10-06T19:41:25.598Z,1.00
2022-10-06T19:43:53.380Z,1.00
2022-10-06T19:46:21.196Z,1.00
2022-10-06T19:48:54.199Z,1.00
2022-10-06T19:51:26.169Z,1.00
2022-10-06T19:53:53.737Z,1.00
2022-10-06T19:56:30.184Z,1.00
2022-10-06T19:58:58.699Z,1.00
2022-10-06T20:01:27.457Z,1.00
2022-10-06T20:03:55.500Z,1.00
2022-10-06T20:06:23.714Z,1.00
2022-10-06T20:08:52.178Z,8.90
2022-10-06T20:11:21.980Z,9.50
2022-10-06T20:13:50.951Z,12.60
2022-10-06T20:16:20.337Z,19.30
2022-10-06T20:18:50.412Z,13.30
2022-10-06T20:21:31.042Z,18.70
2022-10-06T20:24:01.604Z,20.40
2022-10-06T20:26:35.710Z,24.00
2022-10-06T20:29:07.515Z,50.70
2022-10-06T20:31:41.305Z,59.20
2022-10-06T20:34:11.342Z,58.00
2022-10-06T20:36:39.616Z,63.30
2022-10-06T20:39:27.506Z,74.40
2022-10-06T20:41:56.094Z,87.10
2022-10-06T20:44:23.801Z,88.80
2022-10-06T20:46:54.337Z,82.20
2022-10-06T20:49:22.178Z,66.80
2022-10-06T20:51:51.762Z,77.80
2022-10-06T20:54:21.850Z,77.10
2022-10-06T20:56:51.874Z,85.80
2022-10-06T20:59:21.259Z,86.90
2022-10-06T21:01:52.909Z,76.00
2022-10-06T21:04:21.935Z,78.80
2022-10-06T21:06:51.183Z,87.70
2022-10-06T21:09:20.067Z,91.80
2022-10-06T21:11:48.065Z,95.10
2022-10-06T21:14:16.101Z,94.60
2022-10-06T21:16:45.833Z,96.60
2022-10-06T21:19:16.698Z,93.60
2022-10-06T21:21:49.804Z,91.50
2022-10-06T21:24:17.932Z,88.00
2022-10-06T21:26:45.596Z,81.70
2022-10-06T21:29:15.348Z,90.50
2022-10-06T21:31:44.558Z,93.60
2022-10-06T21:34:14.280Z,96.50
2022-10-06T21:36:43.384Z,99.90
2022-10-06T21:39:11.839Z,99.90
2022-10-06T21:41:39.871Z,99.90
2022-10-06T21:44:10.453Z,99.90
2022-10-06T21:46:39.318Z,99.90
2022-10-06T21:49:10.829Z,99.90
2022-10-06T21:51:40.264Z,99.90
2022-10-06T21:54:10.056Z,99.90
2022-10-06T21:56:38.952Z,99.90
2022-10-06T21:59:07.421Z,99.90
2022-10-06T22:01:40.662Z,99.90
2022-10-06T22:04:08.777Z,99.90
2022-10-06T22:06:37.389Z,99.90
2022-10-06T22:09:07.598Z,99.90
2022-10-06T22:11:38.332Z,99.90
2022-10-06T22:14:09.025Z,99.90
2022-10-06T22:16:38.203Z,99.90
2022-10-06T22:19:09.475Z,99.90
2022-10-06T22:21:39.137Z,99.90
2022-10-06T22:24:13.024Z,99.90
2022-10-06T22:26:41.961Z,99.90
2022-10-06T22:29:12.150Z,99.90
2022-10-06T22:31:41.396Z,99.90
2022-10-06T22:34:11.928Z,99.90
2022-10-06T22:36:39.896Z,99.90
2022-10-06T22:39:09.069Z,99.90
2022-10-06T22:41:39.524Z,99.90
2022-10-06T22:44:07.140Z,99.90
2022-10-06T22:46:36.522Z,99.90
2022-10-06T22:49:05.552Z,99.90
2022-10-06T22:51:33.695Z,99.90
2022-10-06T22:54:01.967Z,99.90
2022-10-06T22:56:33.038Z,99.90
2022-10-06T22:59:00.906Z,99.90
2022-10-06T23:01:31.165Z,99.90
2022-10-06T23:03:58.978Z,99.90
2022-10-06T23:06:29.562Z,99.90
2022-10-06T23:08:57.612Z,99.90
2022-10-06T23:11:25.315Z,99.90
2022-10-06T23:13:53.231Z,99.90
2022-10-06T23:16:21.879Z,99.90
2022-10-06T23:18:49.671Z,99.90
2022-10-06T23:21:22.783Z,99.90
2022-10-06T23:23:52.749Z,99.90
2022-10-06T23:26:21.764Z,99.90
2022-10-06T23:28:58.106Z,99.90
2022-10-06T23:31:26.071Z,99.90
2022-10-06T23:33:54.500Z,99.90
2022-10-06T23:36:22.402Z,99.90
2022-10-06T23:38:50.031Z,99.90
2022-10-06T23:41:18.193Z,99.90
2022-10-06T23:43:46.156Z,99.90
2022-10-06T23:46:14.429Z,99.90
2022-10-06T23:48:42.541Z,99.90
2022-10-06T23:51:12.923Z,99.90
2022-10-06T23:53:41.229Z,99.90
2022-10-06T23:56:09.434Z,99.90
2022-10-06T23:58:37.703Z,99.90
